Time;durP1;ratioP1;P1;durP2;ratioP2;P2;SDS_P1;SDS_P2;PMS_P1;PMS_P2;Temp;Humidity;BMP_temperature;BMP_pressure;BME280_temperature;BME280_humidity;BME280_pressure;Samples;Min_cycle;Max_cycle;Signal;HPM_P1;HPM_P2
2023/07/02 00:00:09;;;;;;;7.07;3.10;;;;;;;15.79;100.00;99958.69;692272;28;1193;-60
2023/07/02 00:00:30;;;;;;;5.65;2.78;;;;;;;15.88;100.00;99952.22;690631;28;1540;-60
2023/07/02 00:00:51;;;;;;;5.27;2.90;;;;;;;15.89;100.00;99952.16;691422;28;4544;-60
2023/07/02 00:01:12;;;;;;;5.40;2.63;;;;;;;15.90;100.00;99951.25;692013;28;1255;-60
2023/07/02 00:01:32;;;;;;;6.07;2.50;;;;;;;15.88;100.00;99947.84;692304;28;1465;-60
2023/07/02 00:01:53;;;;;;;6.20;2.50;;;;;;;15.92;100.00;99951.19;694947;28;875;-60
2023/07/02 00:02:14;;;;;;;4.97;2.50;;;;;;;15.94;100.00;99952.00;695309;28;908;-60
2023/07/02 00:02:37;;;;;;;4.68;2.30;;;;;;;15.88;100.00;99947.84;691110;28;1474;-59
2023/07/02 00:03:00;;;;;;;5.00;2.40;;;;;;;15.87;100.00;99956.66;691804;28;1346;-60
2023/07/02 00:03:21;;;;;;;4.80;2.33;;;;;;;16.00;100.00;99952.63;691501;28;1584;-60
2023/07/02 00:03:42;;;;;;;4.22;2.28;;;;;;;15.99;100.00;99955.31;691696;28;4376;-59
2023/07/02 00:04:02;;;;;;;4.72;2.55;;;;;;;15.91;100.00;99950.34;691707;28;1926;-60
2023/07/02 00:04:22;;;;;;;5.03;2.60;;;;;;;15.91;100.00;99952.97;692210;28;1624;-60
2023/07/02 00:04:43;;;;;;;5.03;2.47;;;;;;;15.87;100.00;99951.38;694626;28;979;-60
2023/07/02 00:05:04;;;;;;;5.00;2.70;;;;;;;15.85;100.00;99955.81;694556;28;987;-60
2023/07/02 00:05:25;;;;;;;6.38;2.70;;;;;;;15.93;100.00;99948.50;694085;28;2079;-62
2023/07/02 00:05:45;;;;;;;5.82;2.60;;;;;;;15.90;100.00;99940.72;695150;28;769;-60
2023/07/02 00:06:06;;;;;;;5.20;2.60;;;;;;;15.86;100.00;99954.91;695044;28;872;-60
2023/07/02 00:06:26;;;;;;;5.60;2.25;;;;;;;15.89;100.00;99946.88;693784;28;1479;-60
2023/07/02 00:06:48;;;;;;;5.07;2.35;;;;;;;15.91;100.00;99950.34;694365;28;4390;-60
2023/07/02 00:07:08;;;;;;;7.00;2.42;;;;;;;15.90;100.00;99960.94;694841;28;920;-60
2023/07/02 00:07:28;;;;;;;5.07;2.70;;;;;;;15.92;100.00;99949.44;694269;28;1554;-60
2023/07/02 00:07:49;;;;;;;7.28;2.92;;;;;;;15.88;100.00;99955.75;695112;28;781;-58
2023/07/02 00:08:09;;;;;;;5.87;2.77;;;;;;;15.89;100.00;99951.31;691873;28;1338;-60
2023/07/02 00:08:30;;;;;;;4.13;2.47;;;;;;;15.89;100.00;99956.59;691341;28;1531;-60
2023/07/02 00:08:50;;;;;;;5.47;2.40;;;;;;;15.86;100.00;99954.06;692167;28;936;-60
2023/07/02 00:09:13;;;;;;;5.17;2.50;;;;;;;15.83;100.00;99961.16;689574;28;873;-60
2023/07/02 00:09:34;;;;;;;5.05;2.30;;;;;;;15.89;100.00;99946.88;688317;28;1761;-60
2023/07/02 00:09:54;;;;;;;5.13;2.40;;;;;;;15.99;100.00;99945.63;688967;28;4484;-61
2023/07/02 00:10:15;;;;;;;5.25;2.60;;;;;;;16.02;100.00;99951.69;691406;28;975;-60
2023/07/02 00:10:35;;;;;;;4.83;2.47;;;;;;;16.01;100.00;99948.22;687984;28;1586;-60
2023/07/02 00:10:55;;;;;;;6.03;2.50;;;;;;;16.01;100.00;99948.22;689368;28;956;-60
2023/07/02 00:11:16;;;;;;;4.95;2.38;;;;;;;15.98;100.00;99950.97;689404;28;1949;-59
2023/07/02 00:11:42;;;;;;;4.93;2.33;;;;;;;15.97;100.00;99950.09;690480;28;1075;-60
2023/07/02 00:12:02;;;;;;;4.95;2.58;;;;;;;15.96;100.00;99948.41;689816;28;1242;-60
2023/07/02 00:12:23;;;;;;;5.80;2.60;;;;;;;15.94;100.00;99950.22;690909;28;1457;-60
2023/07/02 00:12:44;;;;;;;5.67;2.57;;;;;;;15.93;100.00;99945.84;692100;28;4448;-59
2023/07/02 00:13:14;;;;;;;5.63;2.38;;;;;;;15.88;100.00;99945.19;693129;28;1461;-60
2023/07/02 00:13:47;;;;;;;5.20;2.67;;;;;;;15.92;100.00;99941.53;691935;28;1090;-60
2023/07/02 00:14:11;;;;;;;5.78;2.80;;;;;;;15.98;100.00;99943.91;692321;28;1160;-60
2023/07/02 00:14:33;;;;;;;4.93;2.38;;;;;;;16.05;100.00;99943.66;690857;28;2213;-60
2023/07/02 00:14:53;;;;;;;4.72;2.47;;;;;;;16.00;100.00;99946.47;692553;28;1003;-60
2023/07/02 00:15:14;;;;;;;6.60;3.00;;;;;;;16.03;100.00;99946.34;691914;28;1204;-61
2023/07/02 00:15:35;;;;;;;7.20;3.45;;;;;;;16.07;100.00;99949.75;693759;28;1555;-60
2023/07/02 00:15:55;;;;;;;7.53;2.80;;;;;;;16.04;100.00;99953.34;694119;28;4446;-60
2023/07/02 00:16:16;;;;;;;5.73;2.53;;;;;;;16.06;100.00;99942.75;692665;28;3219;-60
2023/07/02 00:16:44;;;;;;;5.72;2.40;;;;;;;16.02;100.00;99946.41;694495;28;931;-60
2023/07/02 00:17:05;;;;;;;5.28;2.33;;;;;;;16.00;100.00;99947.38;694207;28;1392;-60
2023/07/02 00:17:25;;;;;;;5.27;2.50;;;;;;;16.03;100.00;99948.16;694226;28;1523;-61
2023/07/02 00:17:48;;;;;;;6.10;2.63;;;;;;;16.02;100.00;99949.06;694222;28;1343;-61
2023/07/02 00:18:08;;;;;;;6.50;2.60;;;;;;;16.02;100.00;99951.69;695278;28;884;-60
2023/07/02 00:18:33;;;;;;;5.35;2.60;;;;;;;15.95;100.00;99954.56;693780;28;1467;-60
2023/07/02 00:18:54;;;;;;;6.45;3.03;;;;;;;15.87;100.00;99951.38;692324;28;4511;-60
2023/07/02 00:19:15;;;;;;;7.73;2.70;;;;;;;15.88;100.00;99950.47;694508;28;924;-61
2023/07/02 00:19:35;;;;;;;6.22;2.80;;;;;;;15.85;100.00;99952.34;692040;28;1326;-60
2023/07/02 00:19:56;;;;;;;5.40;2.60;;;;;;;15.78;100.00;99954.31;691665;28;987;-60
2023/07/02 00:20:17;;;;;;;6.43;2.60;;;;;;;15.75;100.00;99946.53;691260;28;1490;-63
2023/07/02 00:20:37;;;;;;;5.65;2.35;;;;;;;15.87;100.00;99948.75;692209;28;880;-61
2023/07/02 00:20:58;;;;;;;4.95;2.33;;;;;;;15.87;100.00;99945.22;691982;28;1361;-60
2023/07/02 00:21:20;;;;;;;5.23;2.20;;;;;;;15.84;100.00;99946.22;688353;28;1539;-61
2023/07/02 00:21:44;;;;;;;6.88;2.83;;;;;;;15.89;100.00;99953.94;691925;28;4445;-59
2023/07/02 00:22:05;;;;;;;5.70;2.65;;;;;;;15.91;100.00;99947.72;691680;28;937;-60
2023/07/02 00:22:25;;;;;;;5.57;2.70;;;;;;;15.87;100.00;99951.38;691249;28;1545;-60
2023/07/02 00:22:46;;;;;;;5.18;2.50;;;;;;;15.83;100.00;99952.41;692040;28;1369;-60
2023/07/02 00:23:08;;;;;;;6.13;2.70;;;;;;;15.87;100.00;99948.75;692439;28;975;-60
2023/07/02 00:23:30;;;;;;;6.55;2.60;;;;;;;15.85;100.00;99947.94;693804;28;1478;-60
2023/07/02 00:23:50;;;;;;;6.00;2.83;;;;;;;15.84;100.00;99946.22;694995;28;1096;-61
2023/07/02 00:24:11;;;;;;;4.93;2.45;;;;;;;15.83;100.00;99955.88;692931;28;1908;-60
2023/07/02 00:24:31;;;;;;;5.00;2.60;;;;;;;15.87;100.00;99946.09;691205;28;1447;-60
2023/07/02 00:24:55;;;;;;;5.65;2.40;;;;;;;15.87;100.00;99947.88;691887;28;4517;-60
2023/07/02 00:25:16;;;;;;;5.55;2.60;;;;;;;15.89;100.00;99954.78;690846;28;1573;-60
2023/07/02 00:25:36;;;;;;;4.85;2.47;;;;;;;15.82;100.00;99950.69;691922;28;908;-60
2023/07/02 00:25:57;;;;;;;5.30;2.57;;;;;;;15.81;100.00;99955.09;692961;28;1393;-60
2023/07/02 00:26:17;;;;;;;5.18;2.53;;;;;;;15.80;100.00;99949.91;693340;28;1830;-61
2023/07/02 00:26:38;;;;;;;5.20;2.87;;;;;;;15.83;100.00;99953.25;695166;28;853;-60
2023/07/02 00:26:58;;;;;;;7.47;3.40;;;;;;;15.83;100.00;99949.78;695166;28;1133;-60
2023/07/02 00:27:19;;;;;;;5.73;2.53;;;;;;;15.84;100.00;99951.50;691026;28;1597;-60
2023/07/02 00:27:40;;;;;;;6.70;2.80;;;;;;;15.88;100.00;99947.84;693017;28;1310;-60
2023/07/02 00:28:00;;;;;;;7.10;2.65;;;;;;;15.81;100.00;99955.09;692976;28;5079;-60
2023/07/02 00:28:21;;;;;;;7.00;2.50;;;;;;;15.84;100.00;99951.50;689738;28;1654;-62
2023/07/02 00:28:41;;;;;;;6.72;2.60;;;;;;;15.89;100.00;99943.41;686702;28;1616;-60
2023/07/02 00:29:03;;;;;;;8.40;2.87;;;;;;;15.93;100.00;99951.13;686889;28;1346;-60
2023/07/02 00:29:24;;;;;;;5.65;2.50;;;;;;;15.82;100.00;99953.31;681986;28;2156;-60
2023/07/02 00:29:44;;;;;;;5.57;2.70;;;;;;;15.80;100.00;99957.81;684076;28;897;-60
2023/07/02 00:30:05;;;;;;;7.07;2.70;;;;;;;15.79;100.00;99959.56;684600;28;849;-60
2023/07/02 00:30:26;;;;;;;8.52;3.03;;;;;;;15.79;100.00;99956.94;685855;28;1644;-60
2023/07/02 00:30:46;;;;;;;7.47;2.77;;;;;;;15.75;100.00;99957.91;686843;28;4683;-59
2023/07/02 00:31:08;;;;;;;5.45;2.50;;;;;;;15.71;100.00;99955.47;690471;28;833;-60
2023/07/02 00:31:28;;;;;;;5.63;2.65;;;;;;;15.76;100.00;99945.63;689115;28;1432;-60
2023/07/02 00:31:49;;;;;;;6.72;2.75;;;;;;;15.75;100.00;99947.38;691271;28;1346;-60
2023/07/02 00:32:10;;;;;;;5.75;2.63;;;;;;;15.70;100.00;99948.47;689416;28;1048;-60
2023/07/02 00:32:30;;;;;;;5.80;2.60;;;;;;;15.65;100.00;99949.50;688979;28;1460;-60
2023/07/02 00:32:50;;;;;;;5.63;2.50;;;;;;;15.63;100.00;99947.84;692065;28;1035;-60
2023/07/02 00:33:11;;;;;;;5.43;2.53;;;;;;;15.70;100.00;99956.38;691561;28;818;-60
2023/07/02 00:33:32;;;;;;;7.03;3.40;;;;;;;15.77;100.00;99957.88;689598;28;1576;-61
2023/07/02 00:33:52;;;;;;;6.88;2.95;;;;;;;15.84;100.00;99951.50;691260;28;4451;-60
2023/07/02 00:34:12;;;;;;;5.47;2.58;;;;;;;15.82;100.00;99951.56;692381;28;726;-60
2023/07/02 00:34:35;;;;;;;5.78;2.60;;;;;;;15.75;100.00;99952.66;690504;28;1435;-60
2023/07/02 00:34:55;;;;;;;6.07;2.60;;;;;;;15.80;100.00;99952.53;688871;28;1224;-61
2023/07/02 00:35:15;;;;;;;5.45;2.60;;;;;;;15.75;100.00;99950.00;686681;28;1499;-62
2023/07/02 00:35:36;;;;;;;5.33;2.80;;;;;;;15.74;100.00;99953.59;688659;28;1179;-61
2023/07/02 00:35:57;;;;;;;5.43;2.88;;;;;;;15.79;100.00;99953.41;688634;28;814;-60
2023/07/02 00:36:18;;;;;;;5.50;2.65;;;;;;;15.83;100.00;99947.13;686383;28;1485;-60
2023/07/02 00:36:38;;;;;;;5.28;2.53;;;;;;;15.78;100.00;99957.84;687899;28;861;-60
2023/07/02 00:36:59;;;;;;;5.40;2.53;;;;;;;15.79;100.00;99950.78;685195;28;4564;-62
2023/07/02 00:37:20;;;;;;;7.30;2.70;;;;;;;15.79;100.00;99949.03;685271;28;1502;-61
2023/07/02 00:37:40;;;;;;;7.35;2.92;;;;;;;15.79;100.00;99956.03;683672;28;1342;-60
2023/07/02 00:38:00;;;;;;;6.47;3.00;;;;;;;15.79;100.00;99949.03;685217;28;869;-60
2023/07/02 00:38:21;;;;;;;5.57;2.50;;;;;;;15.75;100.00;99949.16;686626;28;1573;-60
2023/07/02 00:38:44;;;;;;;6.88;3.08;;;;;;;15.70;100.00;99951.09;686975;28;5098;-59
2023/07/02 00:39:05;;;;;;;7.43;2.92;;;;;;;15.71;100.00;99956.31;691740;28;1130;-60
2023/07/02 00:39:25;;;;;;;6.57;2.90;;;;;;;15.78;100.00;99949.03;690933;28;1553;-61
2023/07/02 00:39:46;;;;;;;6.37;2.73;;;;;;;15.76;100.00;99956.16;693830;28;4408;-60
2023/07/02 00:40:06;;;;;;;6.38;2.83;;;;;;;15.76;100.00;99948.25;690844;28;875;-61
2023/07/02 00:40:27;;;;;;;7.03;2.70;;;;;;;15.73;100.00;99949.22;688801;28;1426;-60
2023/07/02 00:40:47;;;;;;;6.27;2.77;;;;;;;15.70;100.00;99948.47;689715;28;1004;-60
2023/07/02 00:41:09;;;;;;;6.65;2.72;;;;;;;15.75;100.00;99944.75;689927;28;864;-60
2023/07/02 00:41:30;;;;;;;6.75;2.92;;;;;;;15.74;100.00;99945.69;687768;28;1563;-62
2023/07/02 00:41:50;;;;;;;5.80;2.60;;;;;;;15.70;100.00;99945.84;688865;28;2885;-60
2023/07/02 00:42:11;;;;;;;6.05;2.55;;;;;;;15.68;100.00;99945.06;689060;28;1536;-60
2023/07/02 00:42:32;;;;;;;6.53;3.10;;;;;;;15.64;100.00;99945.13;686162;28;1494;-60
2023/07/02 00:42:52;;;;;;;6.17;2.83;;;;;;;15.63;100.00;99939.94;686978;28;4362;-60
2023/07/02 00:43:13;;;;;;;6.15;3.10;;;;;;;15.65;100.00;99952.13;689855;28;798;-60
2023/07/02 00:43:33;;;;;;;5.53;2.97;;;;;;;15.63;100.00;99948.72;688298;28;1449;-61
2023/07/02 00:43:54;;;;;;;7.25;2.90;;;;;;;15.72;100.00;99951.94;687670;28;1926;-61
2023/07/02 00:44:15;;;;;;;6.53;2.80;;;;;;;15.69;100.00;99949.38;690082;28;1450;-61
2023/07/02 00:44:40;;;;;;;8.25;3.00;;;;;;;15.72;100.00;99949.28;689173;28;952;-63
2023/07/02 00:45:02;;;;;;;6.72;3.22;;;;;;;15.82;100.00;99951.56;687859;28;948;-61
2023/07/02 00:45:26;;;;;;;6.35;2.97;;;;;;;15.88;100.00;99939.03;687965;28;1614;-62
2023/07/02 00:45:46;;;;;;;6.95;2.97;;;;;;;15.80;100.00;99949.91;689554;28;4425;-60
2023/07/02 00:46:07;;;;;;;6.77;3.13;;;;;;;15.80;100.00;99944.63;690262;28;1395;-61
2023/07/02 00:46:28;;;;;;;5.68;3.00;;;;;;;15.79;100.00;99948.13;689872;28;1440;-60
2023/07/02 00:46:48;;;;;;;6.13;3.10;;;;;;;15.79;100.00;99942.88;690640;28;1393;-60
2023/07/02 00:47:09;;;;;;;6.10;2.92;;;;;;;15.71;100.00;99947.56;691155;28;960;-60
2023/07/02 00:47:34;;;;;;;5.80;2.90;;;;;;;15.72;100.00;99944.03;690912;28;1496;-60
2023/07/02 00:47:55;;;;;;;5.82;2.75;;;;;;;15.72;100.00;99952.78;691788;28;885;-61
2023/07/02 00:48:16;;;;;;;5.63;2.88;;;;;;;15.71;100.00;99945.78;694286;28;974;-59
2023/07/02 00:48:38;;;;;;;5.40;2.90;;;;;;;15.63;100.00;99948.72;694965;28;1517;-60
2023/07/02 00:48:59;;;;;;;6.50;2.85;;;;;;;15.64;100.00;99950.41;694370;28;4322;-61
2023/07/02 00:49:20;;;;;;;7.32;2.88;;;;;;;15.61;100.00;99953.16;690549;28;1469;-60
2023/07/02 00:49:41;;;;;;;6.20;2.80;;;;;;;15.69;100.00;99952.00;692686;28;1397;-62
2023/07/02 00:50:02;;;;;;;6.65;3.13;;;;;;;15.75;100.00;99949.16;690271;28;1474;-61
2023/07/02 00:50:23;;;;;;;7.10;3.08;;;;;;;15.77;100.00;99948.19;690173;28;1527;-62
2023/07/02 00:50:44;;;;;;;6.55;3.03;;;;;;;15.72;100.00;99954.56;690847;28;963;-61
2023/07/02 00:51:05;;;;;;;5.88;3.15;;;;;;;15.66;100.00;99947.75;692575;28;1143;-60
2023/07/02 00:51:27;;;;;;;7.60;3.40;;;;;;;15.70;100.00;99949.34;694454;28;1093;-61
2023/07/02 00:51:48;;;;;;;6.63;3.10;;;;;;;15.66;100.00;99947.75;694635;28;4288;-59
2023/07/02 00:52:08;;;;;;;5.90;3.00;;;;;;;15.63;100.00;99945.19;692442;28;1185;-60
2023/07/02 00:52:28;;;;;;;7.17;3.10;;;;;;;15.63;100.00;99948.72;688110;28;1759;-59
2023/07/02 00:52:49;;;;;;;8.80;3.75;;;;;;;15.70;100.00;99943.22;686867;28;1439;-62
2023/07/02 00:53:09;;;;;;;7.17;3.60;;;;;;;15.72;100.00;99951.94;689037;28;924;-60
2023/07/02 00:53:32;;;;;;;5.90;3.10;;;;;;;15.66;100.00;99948.59;683931;28;1521;-60
2023/07/02 00:53:55;;;;;;;7.13;3.40;;;;;;;15.63;100.00;99951.34;685953;28;1343;-60
2023/07/02 00:54:16;;;;;;;7.53;3.30;;;;;;;15.72;100.00;99949.28;688490;28;1060;-61
2023/07/02 00:54:36;;;;;;;8.13;3.33;;;;;;;15.71;100.00;99947.56;688503;28;787;-60
2023/07/02 00:54:57;;;;;;;9.80;3.58;;;;;;;15.68;100.00;99945.91;686949;28;4492;-61
2023/07/02 00:55:17;;;;;;;7.53;3.40;;;;;;;15.69;100.00;99952.91;687222;28;2042;-60
2023/07/02 00:55:37;;;;;;;6.55;3.33;;;;;;;15.60;100.00;99938.31;689009;28;1398;-60
2023/07/02 00:55:58;;;;;;;6.07;3.40;;;;;;;15.60;100.00;99943.56;690167;28;1166;-60
2023/07/02 00:56:18;;;;;;;7.47;3.42;;;;;;;15.66;100.00;99947.75;691591;28;1537;-60
2023/07/02 00:56:41;;;;;;;7.03;3.25;;;;;;;15.59;100.00;99952.38;692013;28;2074;-60
2023/07/02 00:57:02;;;;;;;8.03;3.50;;;;;;;15.61;100.00;99945.25;692689;28;901;-59
2023/07/02 00:57:22;;;;;;;7.10;3.42;;;;;;;15.66;100.00;99943.31;691454;28;2021;-60
2023/07/02 00:57:46;;;;;;;8.47;3.53;;;;;;;15.69;100.00;99946.75;688379;28;5141;-59
2023/07/02 00:58:08;;;;;;;9.10;3.65;;;;;;;15.65;100.00;99953.94;688902;28;956;-60
2023/07/02 00:58:29;;;;;;;7.72;3.50;;;;;;;15.61;100.00;99945.25;684886;28;1486;-60
2023/07/02 00:58:52;;;;;;;6.87;3.33;;;;;;;15.70;100.00;99953.75;681966;28;1255;-61
2023/07/02 00:59:13;;;;;;;7.85;3.53;;;;;;;15.61;100.00;99947.91;684516;28;992;-60
2023/07/02 00:59:35;;;;;;;6.88;3.35;;;;;;;15.60;100.00;99938.31;687338;28;1614;-60
2023/07/02 01:00:00;;;;;;;7.57;3.78;;;;;;;15.58;100.00;99942.75;688898;28;1362;-60
2023/07/02 01:00:21;;;;;;;7.72;3.70;;;;;;;15.63;100.00;99940.81;689341;28;1520;-60
2023/07/02 01:00:43;;;;;;;7.05;3.60;;;;;;;15.58;100.00;99945.38;687203;28;4551;-59
2023/07/02 01:01:04;;;;;;;6.80;3.40;;;;;;;15.54;100.00;99938.50;685594;28;1632;-60
2023/07/02 01:01:27;;;;;;;8.63;3.90;;;;;;;15.56;100.00;99944.59;685656;28;1451;-60
2023/07/02 01:01:52;;;;;;;9.05;4.03;;;;;;;15.49;100.00;99948.34;687555;28;1059;-60
2023/07/02 01:02:14;;;;;;;8.75;3.80;;;;;;;15.57;100.00;99935.75;689708;28;798;-60
2023/07/02 01:02:34;;;;;;;8.93;3.88;;;;;;;15.63;100.00;99945.19;690170;28;1458;-60
2023/07/02 01:02:58;;;;;;;8.83;3.47;;;;;;;15.60;100.00;99940.94;693699;28;833;-60
2023/07/02 01:03:19;;;;;;;7.78;3.55;;;;;;;15.57;100.00;99942.81;694508;28;1458;-60
2023/07/02 01:03:55;;;;;;;7.73;3.37;;;;;;;15.63;100.00;99938.19;695420;28;1201;-60
2023/07/02 01:04:19;;;;;;;7.68;3.38;;;;;;;15.57;100.00;99938.38;695234;28;4943;-60
2023/07/02 01:04:39;;;;;;;7.90;3.92;;;;;;;15.59;100.00;99948.88;695111;28;915;-60
2023/07/02 01:05:00;;;;;;;8.27;3.85;;;;;;;15.66;100.00;99945.97;694790;28;873;-60
2023/07/02 01:05:21;;;;;;;7.23;3.60;;;;;;;15.73;100.00;99943.09;691058;28;1488;-60
2023/07/02 01:05:41;;;;;;;7.10;3.60;;;;;;;15.69;100.00;99946.75;688919;28;1303;-60
2023/07/02 01:06:03;;;;;;;7.93;3.60;;;;;;;15.71;100.00;99948.41;689078;28;770;-60
2023/07/02 01:06:31;;;;;;;8.35;3.50;;;;;;;15.66;100.00;99947.75;683105;28;1620;-60
2023/07/02 01:06:57;;;;;;;7.88;3.58;;;;;;;15.73;100.00;99943.09;684067;28;5057;-60
2023/07/02 01:07:18;;;;;;;8.90;3.92;;;;;;;15.78;100.00;99947.28;685076;28;1518;-61
2023/07/02 01:07:38;;;;;;;9.63;4.03;;;;;;;15.73;100.00;99945.72;688086;28;731;-60
2023/07/02 01:07:59;;;;;;;8.83;3.60;;;;;;;15.72;100.00;99946.66;685631;28;1132;-60
2023/07/02 01:08:19;;;;;;;8.88;4.15;;;;;;;15.73;100.00;99940.44;686254;28;1528;-60
2023/07/02 01:08:40;;;;;;;9.40;4.03;;;;;;;15.66;100.00;99942.47;689684;28;1299;-60
2023/07/02 01:09:05;;;;;;;8.47;3.87;;;;;;;15.65;100.00;99943.38;690227;28;909;-60
2023/07/02 01:09:26;;;;;;;7.65;3.92;;;;;;;15.58;100.00;99940.13;686949;28;1907;-60
2023/07/02 01:09:47;;;;;;;8.82;3.75;;;;;;;15.66;100.00;99937.22;690576;28;4548;-61
2023/07/02 01:10:08;;;;;;;9.68;3.85;;;;;;;15.70;100.00;99945.84;692140;28;1679;-60
2023/07/02 01:10:30;;;;;;;7.88;3.78;;;;;;;15.74;100.00;99940.41;691968;28;1594;-61
2023/07/02 01:10:51;;;;;;;8.65;3.72;;;;;;;15.69;100.00;99949.38;692370;28;935;-60
2023/07/02 01:11:12;;;;;;;9.37;4.10;;;;;;;15.64;100.00;99947.78;691934;28;860;-60
2023/07/02 01:11:36;;;;;;;8.55;4.07;;;;;;;15.64;100.00;99939.03;690873;28;1238;-60
2023/07/02 01:12:03;;;;;;;8.13;3.80;;;;;;;15.71;100.00;99950.19;691189;28;843;-60
2023/07/02 01:12:24;;;;;;;7.22;3.72;;;;;;;15.75;100.00;99951.81;689695;28;1508;-60
2023/07/02 01:12:46;;;;;;;8.95;4.15;;;;;;;15.74;100.00;99945.69;690830;28;4376;-60
2023/07/02 01:13:11;;;;;;;7.50;4.18;;;;;;;15.72;100.00;99946.66;691879;28;3651;-60
2023/07/02 01:13:32;;;;;;;8.55;4.15;;;;;;;15.68;100.00;99947.69;687658;28;2144;-60
2023/07/02 01:13:56;;;;;;;8.23;3.93;;;;;;;15.65;100.00;99944.22;692325;28;1047;-60
2023/07/02 01:14:18;;;;;;;9.18;4.18;;;;;;;15.60;100.00;99943.56;691981;28;967;-60
2023/07/02 01:14:43;;;;;;;10.13;4.20;;;;;;;15.52;100.00;99943.00;692217;28;1206;-60
2023/07/02 01:15:06;;;;;;;9.32;4.13;;;;;;;15.49;100.00;99941.31;692476;28;1405;-60
2023/07/02 01:15:26;;;;;;;8.05;3.92;;;;;;;15.58;100.00;99940.13;691276;28;1464;-60
2023/07/02 01:15:48;;;;;;;7.68;3.90;;;;;;;15.61;100.00;99942.63;689200;28;4760;-60
2023/07/02 01:16:09;;;;;;;8.05;4.10;;;;;;;15.60;100.00;99947.97;687214;28;896;-60
2023/07/02 01:16:32;;;;;;;8.05;4.00;;;;;;;15.59;100.00;99944.47;685992;28;1600;-60
2023/07/02 01:16:55;;;;;;;8.88;4.10;;;;;;;15.53;100.00;99947.31;685518;28;2133;-60
2023/07/02 01:17:19;;;;;;;9.07;4.10;;;;;;;15.58;100.00;99942.75;686982;28;1012;-60
2023/07/02 01:17:41;;;;;;;8.73;3.80;;;;;;;15.63;100.00;99948.72;688004;28;1318;-60
2023/07/02 01:18:03;;;;;;;8.55;4.13;;;;;;;15.58;100.00;99942.75;691334;28;1129;-60
2023/07/02 01:18:24;;;;;;;7.65;4.15;;;;;;;15.63;100.00;99947.84;691399;28;1569;-61
2023/07/02 01:18:44;;;;;;;8.52;4.13;;;;;;;15.66;100.00;99951.22;691595;28;4558;-60
2023/07/02 01:19:13;;;;;;;10.63;4.40;;;;;;;15.59;100.00;99951.50;695453;28;781;-60
2023/07/02 01:19:51;;;;;;;10.10;4.05;;;;;;;15.62;100.00;99944.34;691009;28;1552;-60
2023/07/02 01:20:12;;;;;;;9.13;4.45;;;;;;;15.59;100.00;99949.75;689870;28;893;-60
2023/07/02 01:20:34;;;;;;;8.10;4.25;;;;;;;15.55;100.00;99947.25;688576;28;1600;-60
2023/07/02 01:20:54;;;;;;;8.15;4.47;;;;;;;15.62;100.00;99954.03;689661;28;904;-60
2023/07/02 01:21:15;;;;;;;9.33;4.30;;;;;;;15.56;100.00;99946.34;687356;28;1275;-59
2023/07/02 01:21:36;;;;;;;9.93;4.43;;;;;;;15.56;100.00;99954.25;685992;28;1039;-60
2023/07/02 01:21:56;;;;;;;10.55;4.55;;;;;;;15.58;100.00;99945.38;684023;28;4489;-60
2023/07/02 01:22:18;;;;;;;10.60;4.70;;;;;;;15.55;100.00;99944.63;685840;28;1512;-60
2023/07/02 01:22:39;;;;;;;10.30;4.57;;;;;;;15.56;100.00;99947.22;687248;28;2165;-60
2023/07/02 01:23:03;;;;;;;8.18;4.35;;;;;;;15.52;100.00;99950.00;686765;28;1303;-60
2023/07/02 01:23:23;;;;;;;8.55;4.25;;;;;;;15.52;100.00;99945.63;686450;28;1545;-60
2023/07/02 01:23:43;;;;;;;8.00;4.00;;;;;;;15.51;100.00;99949.16;688292;28;916;-60
2023/07/02 01:24:05;;;;;;;8.35;4.07;;;;;;;15.48;100.00;99951.91;689637;28;1976;-60
2023/07/02 01:24:27;;;;;;;8.65;4.25;;;;;;;15.49;100.00;99946.59;690090;28;2155;-60
2023/07/02 01:24:47;;;;;;;9.95;4.72;;;;;;;15.54;100.00;99950.84;690378;28;4431;-60
2023/07/02 01:25:08;;;;;;;9.63;4.00;;;;;;;15.62;100.00;99954.03;691467;28;865;-60
2023/07/02 01:25:30;;;;;;;10.45;4.22;;;;;;;15.60;100.00;99947.97;690632;28;1560;-59
2023/07/02 01:25:51;;;;;;;10.02;4.30;;;;;;;15.53;100.00;99954.38;690802;28;1175;-60
2023/07/02 01:26:12;;;;;;;8.60;4.38;;;;;;;15.53;100.00;99949.97;689022;28;1251;-61
2023/07/02 01:26:33;;;;;;;9.30;4.60;;;;;;;15.48;100.00;99944.88;688977;28;1466;-61
2023/07/02 01:26:56;;;;;;;9.10;4.30;;;;;;;15.46;100.00;99943.19;690084;28;1006;-60
2023/07/02 01:27:16;;;;;;;8.40;4.30;;;;;;;15.48;100.00;99936.13;686210;28;1307;-62
2023/07/02 01:27:37;;;;;;;8.50;4.38;;;;;;;15.50;100.00;99950.91;686748;28;947;-61
2023/07/02 01:27:59;;;;;;;8.45;4.50;;;;;;;15.47;100.00;99945.78;688263;28;4630;-60
2023/07/02 01:28:19;;;;;;;9.90;4.73;;;;;;;15.43;100.00;99948.59;691327;28;1014;-60
2023/07/02 01:28:41;;;;;;;9.37;4.70;;;;;;;15.50;100.00;99952.72;691743;28;1369;-60
2023/07/02 01:29:14;;;;;;;8.00;4.32;;;;;;;15.53;100.00;99943.84;693092;28;1090;-60
2023/07/02 01:29:36;;;;;;;11.95;4.85;;;;;;;15.50;100.00;99950.91;693912;28;1570;-60
2023/07/02 01:29:56;;;;;;;9.10;4.60;;;;;;;15.55;100.00;99945.50;694582;28;904;-60
2023/07/02 01:30:17;;;;;;;9.13;4.50;;;;;;;15.52;100.00;99943.00;693564;28;1524;-60
2023/07/02 01:30:38;;;;;;;9.50;4.30;;;;;;;15.50;100.00;99942.19;693157;28;1205;-60
2023/07/02 01:30:58;;;;;;;8.45;4.35;;;;;;;15.50;100.00;99950.91;694089;28;4496;-60
2023/07/02 01:31:18;;;;;;;10.97;4.43;;;;;;;15.44;100.00;99950.31;690538;28;1492;-60
2023/07/02 01:31:39;;;;;;;10.25;4.80;;;;;;;15.44;100.00;99945.03;689774;28;801;-60
2023/07/02 01:31:59;;;;;;;9.73;4.60;;;;;;;15.37;100.00;99954.06;688743;28;1323;-60
2023/07/02 01:32:20;;;;;;;9.30;4.63;;;;;;;15.38;100.00;99942.63;689573;28;1508;-62
2023/07/02 01:32:40;;;;;;;10.97;4.73;;;;;;;15.43;100.00;99951.22;690219;28;888;-60
2023/07/02 01:33:01;;;;;;;8.55;4.53;;;;;;;15.44;100.00;99945.03;691178;28;877;-60
2023/07/02 01:33:21;;;;;;;8.37;4.50;;;;;;;15.50;100.00;99942.19;694258;28;1435;-61
2023/07/02 01:33:42;;;;;;;8.83;4.63;;;;;;;15.47;100.00;99947.56;694654;28;4490;-59
2023/07/02 01:34:04;;;;;;;8.97;4.70;;;;;;;15.43;100.00;99953.84;694801;28;1119;-60
2023/07/02 01:34:25;;;;;;;10.05;4.70;;;;;;;15.43;100.00;99946.81;693890;28;1475;-61
2023/07/02 01:34:48;;;;;;;9.13;4.57;;;;;;;15.41;100.00;99943.38;695241;28;955;-60
2023/07/02 01:35:09;;;;;;;9.55;4.60;;;;;;;15.39;100.00;99946.97;692047;28;1638;-60
2023/07/02 01:35:29;;;;;;;9.37;4.77;;;;;;;15.45;100.00;99944.97;688604;28;1527;-60
2023/07/02 01:35:50;;;;;;;9.43;4.72;;;;;;;15.44;100.00;99943.25;692488;28;1360;-61
2023/07/02 01:36:11;;;;;;;9.23;4.90;;;;;;;15.47;100.00;99947.56;688091;28;927;-60
2023/07/02 01:36:31;;;;;;;9.45;4.72;;;;;;;15.52;100.00;99940.34;687295;28;941;-61
2023/07/02 01:36:51;;;;;;;9.82;4.55;;;;;;;15.56;100.00;99938.44;688336;28;4366;-60
2023/07/02 01:37:12;;;;;;;9.23;4.53;;;;;;;15.54;100.00;99945.56;688627;28;1163;-60
2023/07/02 01:37:37;;;;;;;10.33;4.70;;;;;;;15.49;100.00;99938.69;688057;28;1489;-60
2023/07/02 01:37:57;;;;;;;11.85;4.78;;;;;;;15.53;100.00;99939.41;692882;28;872;-61
2023/07/02 01:38:17;;;;;;;10.30;4.70;;;;;;;15.57;100.00;99932.28;691143;28;2902;-61
2023/07/02 01:38:44;;;;;;;10.17;4.80;;;;;;;15.50;100.00;99934.28;689264;28;1490;-61
2023/07/02 01:39:05;;;;;;;11.25;4.57;;;;;;;15.54;100.00;99938.50;688693;28;951;-60
2023/07/02 01:39:25;;;;;;;10.97;4.87;;;;;;;15.48;100.00;99938.75;688460;28;1675;-60
2023/07/02 01:39:46;;;;;;;9.63;4.77;;;;;;;15.43;100.00;99940.69;686245;28;4537;-61
2023/07/02 01:40:08;;;;;;;10.50;5.25;;;;;;;15.44;100.00;99934.50;687103;28;1434;-60
2023/07/02 01:40:30;;;;;;;11.02;5.40;;;;;;;15.40;100.00;99936.38;686940;28;928;-60
2023/07/02 01:40:50;;;;;;;11.50;5.30;;;;;;;15.35;100.00;99948.00;685610;28;1279;-59
2023/07/02 01:41:10;;;;;;;11.17;4.63;;;;;;;15.46;100.00;99932.66;685546;28;1227;-63
2023/07/02 01:41:42;;;;;;;11.85;4.88;;;;;;;15.49;100.00;99933.41;686736;28;1699;-60
2023/07/02 01:42:17;;;;;;;10.63;5.22;;;;;;;15.43;100.00;99938.06;689215;28;915;-61
2023/07/02 01:42:38;;;;;;;11.15;5.43;;;;;;;15.47;100.00;99931.75;692150;28;916;-61
2023/07/02 01:42:58;;;;;;;10.73;5.53;;;;;;;15.44;100.00;99927.47;694550;28;4361;-61
2023/07/02 01:43:19;;;;;;;10.77;5.38;;;;;;;15.48;100.00;99936.13;691122;28;1486;-61